This is the latest recevied weather packets stored in our database for station/object VE7OTD. If no packets are shown the sender has not sent any weather packets the latest 10 day(s).
| Time | Temp. | Humidity | Pressure | Rain* | Wind** | Luminosity | Snow |
|---|---|---|---|---|---|---|---|
| 1777843009 | 27.22° C | 32% | 1012.8 hPa | 0 mm | - | - | - |
| 1777841194 | 25.56° C | 40% | 1013.1 hPa | 0 mm | - | - | - |
| 1777839361 | 25.56° C | 42% | 1013.5 hPa | 0 mm | - | - | - |
| 1777837519 | 25° C | 43% | 1014 hPa | 0 mm | - | - | - |
| 1777835705 | 23.89° C | 44% | 1014.1 hPa | 0 mm | - | - | - |
| 1777833890 | 23.89° C | 46% | 1014.4 hPa | 0 mm | - | - | - |
| 1777832075 | 22.22° C | 47% | 1014.5 hPa | 0 mm | - | - | - |
| 1777830260 | 22.22° C | 47% | 1014.7 hPa | 0 mm | - | - | - |
| 1777828446 | 21.11° C | 49% | 1014.9 hPa | 0 mm | - | - | - |
| 1777826630 | 20° C | 49% | 1015.4 hPa | 0 mm | - | - | - |
| 1777824816 | 18.33° C | 50% | 1015.3 hPa | 0 mm | - | - | - |
| 1777823016 | 18.33° C | 49% | 1015.3 hPa | 0 mm | - | - | - |
| 1777821216 | 16.11° C | 56% | 1015.6 hPa | 0 mm | - | - | - |
| 1777819414 | 13.33° C | 67% | 1015.6 hPa | 0 mm | - | - | - |
| 1777817613 | 11.67° C | 72% | 1015.6 hPa | 0 mm | - | - | - |
| 1777815798 | 8.89° C | 81% | 1015.4 hPa | 0 mm | - | - | - |
| 1777813968 | 8.89° C | 81% | 1015.5 hPa | 0 mm | - | - | - |
| 1777812153 | 9.44° C | 78% | 1015.6 hPa | 0 mm | - | - | - |
| 1777810353 | 10.56° C | 73% | 1015.6 hPa | 0 mm | - | - | - |
| 1777808523 | 11.11° C | 72% | 1015.7 hPa | 0 mm | - | - | - |
| 1777806723 | 11.67° C | 69% | 1015.5 hPa | 0 mm | - | - | - |
| 1777804875 | 11.11° C | 72% | 1015.6 hPa | 0 mm | - | - | - |
| 1777803065 | 11.67° C | 70% | 1015.6 hPa | 0 mm | - | - | - |
| 1777801257 | 11.67° C | 70% | 1015.6 hPa | 0 mm | - | - | - |
| 1777799442 | 12.22° C | 67% | 1015.8 hPa | 0 mm | - | - | - |
* Rain latest hour (hover to see other rain measurements)
** Current wind speed in m/s (hover to see current wind gust speed)